Time;durP1;ratioP1;P1;durP2;ratioP2;P2;SDS_P1;SDS_P2;PMS_P1;PMS_P2;Temp;Humidity;BMP_temperature;BMP_pressure;BME280_temperature;BME280_humidity;BME280_pressure;Samples;Min_cycle;Max_cycle;Signal;HPM_P1;HPM_P2
2023/04/17 00:01:44;;;;;;;15.30;13.90;;;9.70;99.90;;;;;;6003952;23;20189;-64
2023/04/17 00:04:12;;;;;;;16.77;15.07;;;9.70;99.90;;;;;;6003845;23;20616;-64
2023/04/17 00:06:42;;;;;;;17.35;15.75;;;9.70;99.90;;;;;;6004596;23;20253;-64
2023/04/17 00:09:09;;;;;;;16.85;15.35;;;9.70;99.90;;;;;;6001095;23;20186;-64
2023/04/17 00:11:36;;;;;;;16.50;14.90;;;9.70;99.90;;;;;;6000722;23;20276;-64
2023/04/17 00:14:03;;;;;;;16.50;14.90;;;9.70;99.90;;;;;;6004076;23;20220;-64
2023/04/17 00:16:30;;;;;;;18.45;16.85;;;9.70;99.90;;;;;;6005558;23;20221;-64
2023/04/17 00:18:57;;;;;;;15.95;14.55;;;9.70;99.90;;;;;;6018560;23;20196;-64
2023/04/17 00:21:28;;;;;;;16.85;15.15;;;9.70;99.90;;;;;;6000718;23;20290;-64
2023/04/17 00:23:55;;;;;;;16.48;14.98;;;9.70;99.90;;;;;;5999480;23;20233;-64
2023/04/17 00:26:22;;;;;;;16.40;15.00;;;9.70;99.90;;;;;;6000776;23;20190;-64
2023/04/17 00:28:50;;;;;;;16.00;14.50;;;9.70;99.90;;;;;;6000329;23;20324;-64
2023/04/17 00:31:17;;;;;;;16.45;15.00;;;9.70;99.90;;;;;;6000167;23;20197;-64
2023/04/17 00:33:45;;;;;;;16.35;14.90;;;9.70;99.90;;;;;;6003713;23;20297;-64
2023/04/17 00:36:14;;;;;;;18.70;16.92;;;9.70;99.90;;;;;;6001682;23;20217;-64
2023/04/17 00:38:42;;;;;;;17.05;15.45;;;9.70;99.90;;;;;;6003216;23;20565;-64
2023/04/17 00:41:10;;;;;;;16.13;14.63;;;9.70;99.90;;;;;;6001284;23;20197;-64
2023/04/17 00:43:38;;;;;;;15.23;13.82;;;9.70;99.90;;;;;;6002940;23;20224;-64
2023/04/17 00:46:07;;;;;;;16.90;15.40;;;9.70;99.90;;;;;;6002486;23;20196;-64
2023/04/17 00:48:37;;;;;;;16.40;14.80;;;9.70;99.90;;;;;;6000968;23;20198;-64
2023/04/17 00:51:04;;;;;;;16.15;14.60;;;9.70;99.90;;;;;;6001197;23;20201;-64
2023/04/17 00:53:32;;;;;;;14.88;13.55;;;9.70;99.90;;;;;;6004256;23;20218;-64
2023/04/17 00:56:03;;;;;;;15.60;14.20;;;9.70;99.90;;;;;;5993449;23;20191;-64
2023/04/17 00:58:30;;;;;;;15.75;14.32;;;9.70;99.90;;;;;;6000126;23;20705;-64
2023/04/17 01:00:57;;;;;;;16.50;15.10;;;9.70;99.90;;;;;;5999507;23;20256;-64
2023/04/17 01:03:28;;;;;;;14.80;13.40;;;9.60;99.90;;;;;;6003608;23;20376;-64
2023/04/17 01:05:55;;;;;;;15.90;14.52;;;9.60;99.90;;;;;;6000557;23;20193;-64
2023/04/17 01:08:23;;;;;;;15.93;14.45;;;9.60;99.90;;;;;;6003564;23;20273;-64
2023/04/17 01:10:50;;;;;;;16.52;15.02;;;9.50;99.90;;;;;;5997575;23;20236;-64
2023/04/17 01:13:19;;;;;;;15.98;14.50;;;9.50;99.90;;;;;;6001925;23;20548;-63
2023/04/17 01:15:46;;;;;;;17.35;15.65;;;9.50;99.90;;;;;;6000698;23;20630;-63
2023/04/17 01:18:13;;;;;;;17.17;15.57;;;9.40;99.90;;;;;;6000146;23;20721;-63
2023/04/17 01:20:40;;;;;;;16.38;14.98;;;9.70;99.90;;;;;;6004997;23;20191;-63
2023/04/17 01:23:07;;;;;;;16.70;15.10;;;9.70;99.90;;;;;;6005284;23;20847;-64
2023/04/17 01:25:36;;;;;;;15.73;14.43;;;9.40;99.90;;;;;;6000051;23;20776;-64
2023/04/17 01:28:03;;;;;;;16.13;14.68;;;9.70;99.90;;;;;;6001123;23;20197;-64
2023/04/17 01:30:30;;;;;;;16.08;14.50;;;9.50;99.90;;;;;;5996868;23;20265;-64
2023/04/17 01:32:58;;;;;;;14.27;13.07;;;9.80;99.90;;;;;;6001349;23;20208;-64
2023/04/17 01:35:25;;;;;;;17.05;15.52;;;9.50;99.90;;;;;;6001172;23;20265;-64
2023/04/17 01:37:52;;;;;;;15.80;14.38;;;9.50;99.90;;;;;;6003571;23;20194;-64
2023/04/17 01:40:19;;;;;;;16.23;14.73;;;9.80;99.90;;;;;;6004269;23;20272;-64
2023/04/17 01:42:48;;;;;;;17.42;15.73;;;9.50;99.90;;;;;;5997396;23;21490;-64
2023/04/17 01:45:15;;;;;;;15.40;14.00;;;9.80;99.90;;;;;;5998243;23;20309;-64
2023/04/17 01:47:43;;;;;;;16.60;15.00;;;9.80;99.90;;;;;;6001935;23;20198;-64
2023/04/17 01:50:11;;;;;;;16.17;14.75;;;9.80;99.90;;;;;;6004156;23;20198;-64
2023/04/17 01:52:38;;;;;;;16.17;14.63;;;9.60;99.90;;;;;;6001604;23;20218;-64
2023/04/17 01:55:06;;;;;;;15.13;13.73;;;9.90;99.90;;;;;;5997027;23;20217;-64
2023/04/17 01:57:33;;;;;;;16.40;14.80;;;9.60;99.90;;;;;;5998001;23;20240;-64
2023/04/17 02:00:05;;;;;;;16.30;14.85;;;9.90;99.90;;;;;;6002146;23;20201;-64
2023/04/17 02:02:33;;;;;;;15.77;14.15;;;9.90;99.90;;;;;;5987756;23;20241;-64
2023/04/17 02:05:00;;;;;;;17.15;15.55;;;9.60;99.90;;;;;;6002117;23;20283;-63
2023/04/17 02:07:27;;;;;;;16.80;15.25;;;9.90;99.90;;;;;;5999105;23;20639;-64
2023/04/17 02:09:55;;;;;;;17.75;16.08;;;9.50;99.90;;;;;;6000417;23;20269;-64
2023/04/17 02:12:22;;;;;;;16.20;14.80;;;9.80;99.90;;;;;;6002444;23;20638;-64
2023/04/17 02:14:48;;;;;;;17.20;15.60;;;9.80;99.90;;;;;;6001970;23;20284;-64
2023/04/17 02:17:17;;;;;;;16.33;14.68;;;9.70;99.90;;;;;;6002235;23;20194;-64
2023/04/17 02:19:44;;;;;;;17.25;15.55;;;9.50;99.90;;;;;;5996329;23;20205;-64
2023/04/17 02:22:11;;;;;;;16.83;15.27;;;9.50;99.90;;;;;;6002039;23;20241;-64
2023/04/17 02:24:39;;;;;;;17.80;16.15;;;9.80;99.90;;;;;;5996907;23;20231;-64
2023/04/17 02:27:06;;;;;;;17.33;15.52;;;9.50;99.90;;;;;;5998680;23;20272;-64
2023/04/17 02:29:33;;;;;;;15.02;13.73;;;9.40;99.90;;;;;;6001619;23;20206;-64
2023/04/17 02:32:00;;;;;;;17.85;16.15;;;9.50;99.90;;;;;;5998982;23;20217;-64
2023/04/17 02:34:28;;;;;;;17.55;15.85;;;9.40;99.90;;;;;;6001410;23;20217;-64
2023/04/17 02:36:55;;;;;;;17.30;15.60;;;9.40;99.90;;;;;;5999318;23;20269;-64
2023/04/17 02:39:23;;;;;;;17.70;15.90;;;9.40;99.90;;;;;;5999489;23;20189;-64
2023/04/17 02:41:50;;;;;;;17.35;15.75;;;9.40;99.90;;;;;;6001394;23;20209;-64
2023/04/17 02:44:17;;;;;;;17.05;15.32;;;9.80;99.90;;;;;;6002112;23;20687;-64
2023/04/17 02:46:44;;;;;;;17.63;15.98;;;9.40;99.90;;;;;;6003479;23;20272;-64
2023/04/17 02:49:11;;;;;;;16.80;15.30;;;9.30;99.90;;;;;;6000740;23;20198;-64
2023/04/17 02:51:39;;;;;;;19.35;17.45;;;9.70;99.90;;;;;;6002612;23;20202;-63
2023/04/17 02:54:07;;;;;;;17.80;16.00;;;9.50;99.90;;;;;;6002296;23;20293;-64
2023/04/17 02:56:34;;;;;;;16.63;15.07;;;9.30;99.90;;;;;;6002946;23;20257;-64
2023/04/17 02:59:02;;;;;;;18.30;16.55;;;9.30;99.90;;;;;;6003214;23;20279;-64
2023/04/17 03:01:29;;;;;;;18.10;16.40;;;9.20;99.90;;;;;;6000643;23;20706;-64
2023/04/17 03:03:56;;;;;;;17.45;15.77;;;9.30;99.90;;;;;;6002283;23;20209;-64
2023/04/17 03:06:23;;;;;;;16.77;15.13;;;9.30;99.90;;;;;;6003513;23;20263;-64
2023/04/17 03:08:52;;;;;;;18.33;16.63;;;9.30;99.90;;;;;;6003972;23;20634;-64
2023/04/17 03:11:19;;;;;;;19.73;17.83;;;9.30;99.90;;;;;;6000107;23;20190;-63
2023/04/17 03:13:46;;;;;;;18.75;16.90;;;9.30;99.90;;;;;;6003350;23;20217;-64
2023/04/17 03:16:14;;;;;;;17.48;15.77;;;9.30;99.90;;;;;;6001738;23;20221;-64
2023/04/17 03:18:41;;;;;;;19.17;17.42;;;9.70;99.90;;;;;;6003682;23;20259;-64
2023/04/17 03:21:08;;;;;;;18.35;16.55;;;9.30;99.90;;;;;;6006384;23;20210;-64
2023/04/17 03:23:35;;;;;;;17.52;15.93;;;9.30;99.90;;;;;;6007621;23;20225;-64
2023/04/17 03:26:04;;;;;;;16.50;14.90;;;9.60;99.90;;;;;;6001420;23;20234;-64
2023/04/17 03:28:31;;;;;;;19.00;17.10;;;9.60;99.90;;;;;;5993347;23;20775;-64
2023/04/17 03:30:59;;;;;;;18.23;16.63;;;9.60;99.90;;;;;;6002008;23;20523;-64
2023/04/17 03:33:26;;;;;;;18.15;16.08;;;9.40;99.90;;;;;;6002536;23;20276;-64
2023/04/17 03:35:53;;;;;;;17.38;15.88;;;9.40;99.90;;;;;;6001073;23;20201;-64
2023/04/17 03:38:20;;;;;;;17.63;16.02;;;9.70;99.90;;;;;;6003185;23;20214;-64
2023/04/17 03:40:47;;;;;;;16.98;15.43;;;9.40;99.90;;;;;;6004997;23;20256;-64
2023/04/17 03:43:16;;;;;;;17.35;15.75;;;9.60;99.90;;;;;;6017282;23;20218;-64
2023/04/17 03:45:43;;;;;;;15.95;14.55;;;9.40;99.90;;;;;;6003445;23;20635;-64
2023/04/17 03:48:10;;;;;;;16.88;15.18;;;9.70;99.90;;;;;;6003434;23;20202;-64
2023/04/17 03:50:37;;;;;;;17.00;15.40;;;9.70;99.90;;;;;;6011861;23;20205;-63
2023/04/17 03:53:04;;;;;;;17.90;16.20;;;9.60;99.90;;;;;;6003654;23;20241;-63
2023/04/17 03:55:32;;;;;;;18.77;16.83;;;9.40;99.90;;;;;;6000819;23;20221;-63
2023/04/17 03:57:59;;;;;;;19.05;17.25;;;9.40;99.90;;;;;;6003263;23;20196;-63
2023/04/17 04:00:27;;;;;;;17.52;15.93;;;9.40;99.90;;;;;;6000466;23;20245;-64
2023/04/17 04:02:55;;;;;;;17.80;16.00;;;9.40;99.90;;;;;;5996067;23;20327;-64
2023/04/17 04:05:22;;;;;;;17.05;15.38;;;9.40;99.90;;;;;;6000111;23;20214;-63
2023/04/17 04:07:49;;;;;;;18.10;16.40;;;9.40;99.90;;;;;;6002039;23;20197;-64
2023/04/17 04:10:16;;;;;;;18.30;16.60;;;9.60;99.90;;;;;;6003054;23;20204;-64
2023/04/17 04:12:43;;;;;;;18.85;17.05;;;9.40;99.90;;;;;;6001579;23;20301;-64
2023/04/17 04:15:11;;;;;;;18.38;16.20;;;9.60;99.90;;;;;;5998311;23;20550;-64
2023/04/17 04:17:39;;;;;;;17.15;15.55;;;9.30;99.90;;;;;;6000406;23;20280;-64
2023/04/17 04:20:08;;;;;;;17.17;15.48;;;9.70;99.90;;;;;;6002980;23;20201;-64
2023/04/17 04:22:35;;;;;;;18.25;16.45;;;9.30;99.90;;;;;;6003913;23;20198;-63
2023/04/17 04:25:02;;;;;;;18.20;16.50;;;9.60;99.90;;;;;;6001413;23;20496;-63
2023/04/17 04:27:31;;;;;;;18.45;16.65;;;9.30;99.90;;;;;;6001401;23;20217;-63
2023/04/17 04:30:00;;;;;;;19.40;17.58;;;8.90;99.90;;;;;;5999163;23;20281;-63
2023/04/17 04:32:27;;;;;;;18.60;16.85;;;9.30;99.90;;;;;;6001658;23;20197;-63
2023/04/17 04:34:57;;;;;;;18.27;16.58;;;9.30;99.90;;;;;;6008852;23;20548;-63
2023/04/17 04:37:28;;;;;;;20.15;18.13;;;9.20;99.90;;;;;;6002000;23;20224;-63
2023/04/17 04:40:00;;;;;;;18.90;17.10;;;9.20;99.90;;;;;;6003896;23;20706;-63
2023/04/17 04:42:28;;;;;;;18.85;17.23;;;9.20;99.90;;;;;;6003332;23;20716;-63
2023/04/17 04:44:55;;;;;;;20.92;18.98;;;9.20;99.90;;;;;;6003602;23;20229;-63
2023/04/17 04:47:22;;;;;;;19.38;17.52;;;9.20;99.90;;;;;;6001762;23;20197;-63
2023/04/17 04:49:49;;;;;;;18.10;16.35;;;9.30;99.90;;;;;;6003395;23;20190;-64
2023/04/17 04:52:18;;;;;;;19.13;17.33;;;9.50;99.90;;;;;;6007638;23;20689;-63
2023/04/17 04:54:45;;;;;;;17.92;16.15;;;9.30;99.90;;;;;;6003931;23;20260;-63
2023/04/17 04:57:12;;;;;;;19.08;17.23;;;9.60;99.90;;;;;;6001625;23;20205;-63
2023/04/17 04:59:39;;;;;;;19.17;17.38;;;9.30;99.90;;;;;;5996551;23;20225;-64
2023/04/17 05:02:07;;;;;;;19.63;17.52;;;9.30;99.90;;;;;;5999687;23;20201;-66
2023/04/17 05:04:34;;;;;;;18.60;16.90;;;9.60;99.90;;;;;;5987511;23;20950;-64
2023/04/17 05:07:03;;;;;;;18.05;16.25;;;9.30;99.90;;;;;;6000760;23;20196;-64
2023/04/17 05:09:32;;;;;;;18.33;16.63;;;9.40;99.90;;;;;;6000097;23;20209;-64
2023/04/17 05:11:59;;;;;;;17.65;16.05;;;9.40;99.90;;;;;;6000112;23;20213;-63
2023/04/17 05:14:26;;;;;;;17.65;16.00;;;9.40;99.90;;;;;;6005171;23;20226;-64
2023/04/17 05:16:54;;;;;;;17.35;15.77;;;9.40;99.90;;;;;;6004327;23;20277;-64
2023/04/17 05:19:22;;;;;;;17.08;15.57;;;9.70;99.90;;;;;;6001259;23;20230;-64
2023/04/17 05:21:49;;;;;;;17.85;16.15;;;9.50;99.90;;;;;;6007447;23;20244;-64
2023/04/17 05:24:16;;;;;;;18.77;16.98;;;9.50;99.90;;;;;;6002757;23;20312;-64
2023/04/17 05:26:45;;;;;;;17.88;16.20;;;9.50;99.90;;;;;;6005221;23;20257;-64
2023/04/17 05:29:12;;;;;;;22.63;20.45;;;9.50;99.90;;;;;;6003615;23;20276;-64
2023/04/17 05:31:40;;;;;;;27.58;24.92;;;9.70;99.90;;;;;;6017484;23;20200;-64
2023/04/17 05:34:07;;;;;;;27.02;24.60;;;9.50;99.90;;;;;;6001722;23;20241;-64
2023/04/17 05:36:34;;;;;;;25.90;23.42;;;9.60;99.90;;;;;;6001859;23;20194;-66
2023/04/17 05:39:01;;;;;;;21.25;19.17;;;9.80;99.90;;;;;;5999816;23;20665;-64
2023/04/17 05:41:29;;;;;;;20.08;18.05;;;9.90;99.90;;;;;;6000135;23;20324;-64
2023/04/17 05:43:58;;;;;;;19.67;17.67;;;9.90;99.90;;;;;;6000018;23;20221;-65
2023/04/17 05:46:25;;;;;;;22.33;20.42;;;9.60;99.90;;;;;;6000337;23;20218;-64
2023/04/17 05:48:52;;;;;;;18.88;17.08;;;9.60;99.90;;;;;;6001535;23;20276;-65
2023/04/17 05:51:20;;;;;;;18.95;17.20;;;9.90;99.90;;;;;;6002379;23;20274;-65
2023/04/17 05:53:47;;;;;;;17.65;15.85;;;9.60;99.90;;;;;;5997812;23;20280;-67
2023/04/17 05:56:14;;;;;;;16.75;15.25;;;9.60;99.90;;;;;;5986350;23;20265;-67
2023/04/17 05:58:41;;;;;;;18.35;16.63;;;9.70;99.90;;;;;;6009574;23;20182;-67
2023/04/17 06:01:11;;;;;;;16.73;15.15;;;9.60;99.90;;;;;;5997523;23;20639;-66
2023/04/17 06:03:39;;;;;;;15.55;14.15;;;9.60;99.90;;;;;;5992603;23;20216;-65
2023/04/17 06:06:06;;;;;;;16.17;14.63;;;9.70;99.90;;;;;;5997774;23;20218;-65
2023/04/17 06:08:33;;;;;;;15.55;14.15;;;9.70;99.90;;;;;;5994452;23;20244;-64
2023/04/17 06:11:00;;;;;;;17.02;15.32;;;9.70;99.90;;;;;;5999872;23;20240;-65
2023/04/17 06:13:27;;;;;;;17.02;15.32;;;9.70;99.90;;;;;;6004303;23;20289;-64
2023/04/17 06:15:55;;;;;;;15.95;14.45;;;9.70;99.90;;;;;;5999001;23;20229;-64
2023/04/17 06:18:23;;;;;;;16.27;14.77;;;9.70;99.90;;;;;;6003939;23;20197;-64
2023/04/17 06:20:50;;;;;;;16.45;14.85;;;9.70;99.90;;;;;;5997784;23;20669;-64
2023/04/17 06:23:17;;;;;;;16.67;14.98;;;9.70;99.90;;;;;;5997313;23;20324;-65
2023/04/17 06:25:45;;;;;;;17.67;16.08;;;9.70;99.90;;;;;;5997183;23;20276;-65
2023/04/17 06:28:12;;;;;;;16.83;15.23;;;9.70;99.90;;;;;;5988442;23;20957;-65
2023/04/17 06:30:39;;;;;;;16.15;14.50;;;9.70;99.90;;;;;;5996352;23;20944;-65
2023/04/17 06:33:06;;;;;;;15.30;13.90;;;9.80;99.90;;;;;;5999589;23;20671;-64
2023/04/17 06:35:35;;;;;;;15.35;13.95;;;9.70;99.90;;;;;;6000877;23;20240;-64
2023/04/17 06:38:02;;;;;;;16.75;15.18;;;9.70;99.90;;;;;;6001481;23;20198;-64
2023/04/17 06:40:29;;;;;;;15.90;14.35;;;9.80;99.90;;;;;;5994720;23;20187;-64
2023/04/17 06:42:56;;;;;;;15.68;14.27;;;9.80;99.90;;;;;;5998930;23;20292;-64
2023/04/17 06:45:23;;;;;;;14.38;13.05;;;9.80;99.90;;;;;;5993516;23;20265;-65
2023/04/17 06:47:51;;;;;;;17.08;15.38;;;9.90;99.90;;;;;;5989740;23;20190;-77
2023/04/17 06:50:18;;;;;;;16.33;14.73;;;9.90;99.90;;;;;;5989578;23;20432;-78
2023/04/17 06:52:46;;;;;;;15.75;14.35;;;9.90;99.90;;;;;;5993467;23;20206;-65
2023/04/17 06:55:14;;;;;;;15.77;14.38;;;9.90;99.90;;;;;;5987560;23;20646;-65
2023/04/17 06:57:41;;;;;;;15.27;13.98;;;9.90;99.90;;;;;;5984828;23;20240;-65
2023/04/17 07:00:09;;;;;;;15.65;13.95;;;9.90;99.90;;;;;;5989499;23;20261;-65
2023/04/17 07:02:37;;;;;;;14.48;13.27;;;9.90;99.90;;;;;;5998327;23;20777;-65
2023/04/17 07:05:06;;;;;;;16.27;14.70;;;9.90;99.90;;;;;;5991075;23;20190;-64
2023/04/17 07:07:34;;;;;;;15.88;14.38;;;9.90;99.90;;;;;;5998092;23;20723;-64
2023/04/17 07:10:04;;;;;;;16.08;14.43;;;9.90;99.90;;;;;;5991310;23;20189;-64
2023/04/17 07:12:31;;;;;;;15.60;14.10;;;9.90;99.90;;;;;;5990069;23;20269;-64
2023/04/17 07:14:58;;;;;;;15.95;14.35;;;9.90;99.90;;;;;;5997480;23;20194;-64
2023/04/17 07:17:25;;;;;;;14.90;13.40;;;10.10;99.90;;;;;;5999411;23;20182;-64
2023/04/17 07:19:53;;;;;;;17.08;15.48;;;10.00;99.90;;;;;;5991210;23;20606;-64
2023/04/17 07:22:20;;;;;;;15.00;13.60;;;10.00;99.90;;;;;;5989108;23;20189;-64
2023/04/17 07:24:47;;;;;;;14.50;13.20;;;10.00;99.90;;;;;;5995768;23;20202;-64
2023/04/17 07:27:16;;;;;;;15.27;13.93;;;10.00;99.90;;;;;;6002955;23;20231;-64
2023/04/17 07:29:45;;;;;;;15.68;14.18;;;10.00;99.90;;;;;;5986765;23;20273;-65
2023/04/17 07:32:12;;;;;;;16.42;14.98;;;10.00;99.90;;;;;;6000688;23;20203;-64
2023/04/17 07:34:40;;;;;;;14.63;13.32;;;10.00;99.90;;;;;;5997954;23;20619;-64
2023/04/17 07:37:08;;;;;;;14.90;13.60;;;10.00;99.90;;;;;;5999736;23;20634;-64
2023/04/17 07:39:35;;;;;;;13.60;12.40;;;10.10;99.90;;;;;;6002116;23;20283;-64
2023/04/17 07:42:05;;;;;;;14.23;12.82;;;10.10;99.90;;;;;;6002250;23;20657;-64
2023/04/17 07:44:33;;;;;;;13.80;12.13;;;10.20;99.90;;;;;;6001535;23;20210;-64
2023/04/17 07:47:00;;;;;;;14.88;13.50;;;10.20;99.90;;;;;;6002350;23;20316;-63
2023/04/17 07:49:28;;;;;;;14.50;13.20;;;10.20;99.90;;;;;;6001629;23;20182;-64
2023/04/17 07:51:55;;;;;;;13.40;12.20;;;10.30;99.90;;;;;;6002060;23;20269;-63
2023/04/17 07:54:22;;;;;;;13.95;12.70;;;10.40;99.90;;;;;;5991815;23;20561;-64
2023/04/17 07:56:49;;;;;;;13.73;12.43;;;10.40;99.90;;;;;;5983841;23;20710;-64
2023/04/17 07:59:16;;;;;;;13.50;12.20;;;10.50;99.90;;;;;;5998805;23;20584;-64
2023/04/17 08:01:44;;;;;;;15.13;13.63;;;10.60;99.90;;;;;;5992329;23;20735;-64
2023/04/17 08:04:11;;;;;;;12.50;11.30;;;10.70;99.90;;;;;;6005311;23;20818;-64
2023/04/17 08:06:38;;;;;;;12.23;11.10;;;10.80;99.90;;;;;;5999020;23;20224;-65
2023/04/17 08:09:06;;;;;;;13.23;12.13;;;10.90;99.90;;;;;;6007037;23;20202;-64
2023/04/17 08:11:33;;;;;;;12.90;11.60;;;11.00;99.90;;;;;;5998495;23;20249;-64
2023/04/17 08:14:00;;;;;;;12.30;11.18;;;11.00;99.90;;;;;;6000134;23;20218;-64
2023/04/17 08:16:27;;;;;;;11.52;10.50;;;11.00;99.90;;;;;;6000490;23;20196;-64
2023/04/17 08:18:55;;;;;;;11.85;10.75;;;11.10;99.90;;;;;;5994383;23;20186;-64
2023/04/17 08:21:23;;;;;;;11.75;10.75;;;11.20;99.90;;;;;;5995774;23;20221;-64
2023/04/17 08:23:50;;;;;;;11.85;10.85;;;11.20;99.90;;;;;;5996927;23;20619;-64
2023/04/17 08:26:19;;;;;;;11.63;10.52;;;11.20;99.90;;;;;;5981948;23;20242;-64
2023/04/17 08:28:46;;;;;;;9.68;8.88;;;11.30;99.90;;;;;;5995134;23;20224;-64
2023/04/17 08:31:13;;;;;;;10.75;9.00;;;11.30;99.90;;;;;;5995758;23;20272;-64
2023/04/17 08:33:40;;;;;;;9.30;8.50;;;11.40;99.90;;;;;;5994333;23;20203;-65
2023/04/17 08:36:09;;;;;;;9.98;9.18;;;11.50;99.90;;;;;;5996208;23;20197;-64
2023/04/17 08:38:36;;;;;;;9.90;9.02;;;11.50;99.90;;;;;;5996825;23;20318;-65
2023/04/17 08:41:07;;;;;;;9.33;8.53;;;11.70;99.90;;;;;;5996259;23;20182;-64
2023/04/17 08:43:35;;;;;;;9.43;8.63;;;11.70;99.90;;;;;;5994291;23;20457;-65
2023/04/17 08:46:02;;;;;;;8.53;7.83;;;11.80;99.90;;;;;;5996589;23;20993;-64
2023/04/17 08:48:30;;;;;;;9.80;9.00;;;11.80;99.90;;;;;;5994124;23;20528;-64
2023/04/17 08:50:58;;;;;;;7.90;7.10;;;11.80;99.90;;;;;;5997644;23;20520;-63
2023/04/17 08:53:27;;;;;;;9.10;8.20;;;11.90;99.90;;;;;;5991398;23;20453;-64
2023/04/17 08:55:53;;;;;;;8.80;8.10;;;11.90;99.90;;;;;;5989175;23;20438;-63
2023/04/17 08:58:24;;;;;;;8.47;7.77;;;12.00;99.90;;;;;;5991417;23;20210;-64
2023/04/17 09:00:52;;;;;;;7.45;6.75;;;12.00;99.90;;;;;;5994107;23;20850;-64
2023/04/17 09:03:19;;;;;;;6.97;6.38;;;12.10;99.90;;;;;;5992168;23;20621;-64
2023/04/17 09:05:47;;;;;;;6.85;6.35;;;12.10;99.90;;;;;;5989734;23;20186;-64
2023/04/17 09:08:16;;;;;;;8.30;7.60;;;12.20;99.90;;;;;;5986310;23;20228;-64
2023/04/17 09:10:46;;;;;;;8.47;7.73;;;12.10;99.90;;;;;;5990359;23;21324;-64
2023/04/17 09:13:14;;;;;;;7.30;6.63;;;12.00;99.90;;;;;;6000574;23;20496;-63
2023/04/17 09:15:43;;;;;;;8.50;7.80;;;12.00;99.90;;;;;;5992253;23;20441;-64
2023/04/17 09:18:26;;;;;;;7.10;6.50;;;12.00;99.90;;;;;;6001241;23;20430;-63
2023/04/17 09:20:56;;;;;;;7.80;7.10;;;12.00;99.90;;;;;;6002386;23;20217;-63
2023/04/17 09:23:23;;;;;;;6.72;6.20;;;12.00;99.90;;;;;;6000786;23;20493;-64
2023/04/17 09:29:02;;;;;;;5.50;5.03;;;12.00;99.90;;;;;;6147662;23;20564;-63
2023/04/17 09:31:33;;;;;;;5.47;5.07;;;11.90;99.90;;;;;;6143408;23;20179;-63
2023/04/17 09:34:01;;;;;;;6.00;5.50;;;11.90;99.90;;;;;;6134158;23;20507;-63
2023/04/17 09:36:30;;;;;;;5.10;4.70;;;11.90;99.90;;;;;;6134191;23;20531;-62
2023/04/17 09:38:58;;;;;;;6.80;6.20;;;11.90;99.90;;;;;;6151520;23;21288;-63
2023/04/17 09:41:26;;;;;;;7.03;6.43;;;11.90;99.90;;;;;;6144535;23;20431;-63
2023/04/17 09:43:59;;;;;;;7.78;7.07;;;11.90;99.90;;;;;;6144786;23;20452;-62
2023/04/17 09:46:36;;;;;;;8.47;7.67;;;11.90;99.90;;;;;;6137594;23;20182;-62
2023/04/17 09:49:09;;;;;;;7.77;7.07;;;12.00;99.90;;;;;;6149981;23;20448;-63
2023/04/17 09:51:37;;;;;;;7.97;7.17;;;12.20;99.90;;;;;;6141850;23;20557;-63
2023/04/17 09:54:05;;;;;;;7.07;6.47;;;12.30;99.90;;;;;;6141680;23;20451;-63
2023/04/17 09:56:34;;;;;;;7.20;6.60;;;12.60;99.90;;;;;;6133003;23;20458;-63
2023/04/17 09:59:04;;;;;;;6.47;5.97;;;12.80;99.90;;;;;;6132859;23;21042;-63
2023/04/17 10:01:32;;;;;;;6.67;6.07;;;12.90;99.90;;;;;;6134181;23;20435;-63
2023/04/17 10:04:00;;;;;;;6.00;5.50;;;13.00;99.90;;;;;;6123550;23;20532;-64
2023/04/17 10:06:27;;;;;;;5.80;5.33;;;13.00;99.90;;;;;;6128827;23;20434;-64
2023/04/17 10:08:54;;;;;;;7.27;6.67;;;13.10;99.90;;;;;;6125401;23;20434;-63
2023/04/17 10:11:23;;;;;;;6.33;5.83;;;13.10;99.90;;;;;;6126070;23;20448;-64
2023/04/17 10:14:06;;;;;;;6.80;6.30;;;13.20;99.90;;;;;;6132249;23;20462;-64
2023/04/17 10:16:38;;;;;;;6.50;6.00;;;13.30;99.90;;;;;;6121919;23;20525;-64
2023/04/17 10:19:29;;;;;;;6.53;5.93;;;13.50;99.90;;;;;;6129921;23;20518;-64
2023/04/17 10:22:31;;;;;;;6.43;5.83;;;13.60;99.90;;;;;;6122397;23;20444;-64
2023/04/17 10:25:22;;;;;;;6.23;5.70;;;13.60;99.90;;;;;;6129250;23;20453;-64
2023/04/17 10:27:52;;;;;;;6.20;5.70;;;13.60;99.90;;;;;;6126863;23;20467;-64
2023/04/17 10:30:21;;;;;;;5.80;5.30;;;13.60;99.90;;;;;;6124631;23;21236;-63
2023/04/17 10:33:18;;;;;;;5.83;5.43;;;13.40;99.90;;;;;;6119795;23;20503;-64
2023/04/17 10:35:48;;;;;;;5.60;5.20;;;13.30;99.90;;;;;;6128831;23;20938;-64
2023/04/17 10:38:17;;;;;;;6.50;5.80;;;13.10;99.90;;;;;;6133911;23;20430;-64
2023/04/17 10:40:44;;;;;;;6.07;5.60;;;13.00;99.90;;;;;;6125513;23;20545;-64
2023/04/17 10:43:13;;;;;;;7.67;6.97;;;12.90;99.90;;;;;;6124709;23;20456;-64
2023/04/17 10:46:03;;;;;;;6.50;5.90;;;12.80;99.90;;;;;;6128761;23;20426;-63
2023/04/17 10:48:33;;;;;;;6.83;6.23;;;12.70;99.90;;;;;;6131862;23;20510;-63
2023/04/17 10:51:22;;;;;;;6.30;5.80;;;12.60;99.90;;;;;;6143940;23;20449;-64
2023/04/17 10:53:50;;;;;;;6.30;5.70;;;12.60;99.90;;;;;;6125825;23;20457;-64
2023/04/17 10:56:19;;;;;;;5.70;5.20;;;12.70;99.90;;;;;;6129749;23;20447;-64
2023/04/17 10:58:58;;;;;;;6.60;6.00;;;12.80;99.90;;;;;;6130126;23;20461;-64
2023/04/17 11:01:29;;;;;;;6.17;5.67;;;12.80;99.90;;;;;;6125449;23;20515;-64
2023/04/17 11:03:58;;;;;;;6.60;6.10;;;13.00;99.90;;;;;;6135587;23;20526;-64
2023/04/17 11:06:28;;;;;;;6.07;5.57;;;13.00;99.90;;;;;;6136833;23;20435;-65
2023/04/17 11:08:56;;;;;;;7.60;6.80;;;13.10;99.90;;;;;;6128261;23;20834;-65
2023/04/17 11:11:23;;;;;;;6.67;6.17;;;13.10;99.90;;;;;;6127801;23;20436;-64
2023/04/17 11:13:51;;;;;;;5.60;5.10;;;13.10;99.90;;;;;;6127429;23;20463;-64
2023/04/17 11:16:19;;;;;;;5.77;5.10;;;13.10;99.90;;;;;;6131796;23;20785;-65
2023/04/17 11:18:47;;;;;;;4.97;4.57;;;13.20;99.90;;;;;;6125461;23;20504;-64
2023/04/17 11:21:15;;;;;;;6.10;5.60;;;13.20;99.90;;;;;;6130986;23;20533;-64
2023/04/17 11:23:51;;;;;;;5.60;5.10;;;13.10;99.90;;;;;;6122633;23;20971;-64
2023/04/17 11:26:19;;;;;;;5.17;4.77;;;13.10;99.90;;;;;;6120118;23;20455;-65
2023/04/17 11:28:46;;;;;;;5.93;5.53;;;13.10;99.90;;;;;;6130842;23;20635;-65
2023/04/17 11:31:14;;;;;;;7.27;6.67;;;13.10;99.90;;;;;;6117432;23;20434;-64
2023/04/17 11:33:41;;;;;;;4.87;4.57;;;13.10;99.90;;;;;;6111378;23;20483;-64
2023/04/17 11:36:09;;;;;;;6.40;5.80;;;13.10;99.90;;;;;;6132258;23;20430;-64
2023/04/17 11:38:36;;;;;;;5.23;4.83;;;13.10;99.90;;;;;;6130767;23;20514;-64
2023/04/17 11:41:09;;;;;;;5.83;5.33;;;13.10;99.90;;;;;;6125644;23;20436;-64
2023/04/17 11:43:38;;;;;;;5.13;4.73;;;13.10;99.90;;;;;;6122051;23;20544;-64
2023/04/17 11:46:06;;;;;;;5.77;5.27;;;13.10;99.90;;;;;;6130535;23;20438;-64
2023/04/17 11:48:34;;;;;;;5.67;5.13;;;13.20;99.90;;;;;;6130863;23;20502;-64
2023/04/17 11:51:04;;;;;;;5.70;5.20;;;13.40;99.90;;;;;;6125434;23;20523;-64
2023/04/17 11:53:34;;;;;;;5.63;5.20;;;13.50;99.90;;;;;;6125439;23;20551;-64
2023/04/17 11:56:16;;;;;;;5.50;5.10;;;13.70;99.90;;;;;;6116573;23;20444;-65
2023/04/17 11:58:48;;;;;;;5.80;5.10;;;13.90;99.90;;;;;;6109202;23;20968;-64
2023/04/17 12:01:16;;;;;;;6.60;5.67;;;14.10;99.90;;;;;;6127075;23;20483;-64
2023/04/17 12:03:43;;;;;;;5.63;5.13;;;14.40;99.90;;;;;;6122389;23;20982;-65
2023/04/17 12:06:10;;;;;;;4.87;4.47;;;14.70;99.90;;;;;;6128420;23;20471;-64
2023/04/17 12:08:46;;;;;;;4.77;4.37;;;15.00;99.90;;;;;;6124043;23;20470;-64
2023/04/17 12:11:24;;;;;;;4.57;4.20;;;15.20;99.90;;;;;;6129728;23;20496;-64
2023/04/17 12:13:51;;;;;;;5.07;4.67;;;15.50;99.90;;;;;;6120617;23;20433;-65
2023/04/17 12:16:18;;;;;;;4.80;4.50;;;15.60;99.90;;;;;;6128534;23;20441;-64
2023/04/17 12:18:45;;;;;;;4.20;3.90;;;16.00;99.90;;;;;;6114360;23;20461;-65
2023/04/17 12:21:12;;;;;;;4.40;4.10;;;15.90;99.90;;;;;;6128299;23;20440;-64
2023/04/17 12:23:40;;;;;;;4.97;4.57;;;16.10;99.90;;;;;;6118409;23;20552;-64
2023/04/17 12:26:07;;;;;;;4.67;4.30;;;15.90;99.90;;;;;;6132639;23;20512;-65
2023/04/17 12:28:36;;;;;;;5.30;4.80;;;15.70;99.90;;;;;;6132546;23;20559;-64
2023/04/17 12:31:04;;;;;;;5.43;4.93;;;15.50;99.90;;;;;;6123715;23;20457;-66
2023/04/17 12:33:31;;;;;;;4.40;4.10;;;15.30;99.90;;;;;;6124558;23;20540;-64
2023/04/17 12:35:58;;;;;;;4.33;4.03;;;15.00;99.90;;;;;;6130764;23;20428;-64
2023/04/17 12:38:25;;;;;;;4.70;4.30;;;14.70;99.90;;;;;;6121293;23;20442;-64
2023/04/17 12:40:52;;;;;;;5.77;5.27;;;14.50;99.90;;;;;;6121337;23;20437;-64
2023/04/17 12:43:19;;;;;;;5.50;5.10;;;14.40;99.90;;;;;;6119496;23;20694;-65
2023/04/17 12:45:48;;;;;;;6.00;4.53;;;14.20;99.90;;;;;;6122443;23;20441;-64
2023/04/17 12:48:16;;;;;;;4.83;4.43;;;14.00;99.90;;;;;;6094086;23;20497;-63